createdAt,value
2024-04-23T00:00:27.613Z,-0.80
2024-04-23T00:03:21.368Z,-0.78
2024-04-23T00:05:55.002Z,-0.80
2024-04-23T00:08:28.818Z,-0.84
2024-04-23T00:11:02.755Z,-0.90
2024-04-23T00:13:36.520Z,-0.90
2024-04-23T00:16:12.382Z,-0.90
2024-04-23T00:18:45.949Z,-0.90
2024-04-23T00:21:19.734Z,-0.90
2024-04-23T00:23:53.542Z,-1.00
2024-04-23T00:26:27.236Z,-1.00
2024-04-23T00:29:01.001Z,-1.00
2024-04-23T00:31:34.690Z,-1.00
2024-04-23T00:34:08.287Z,-1.08
2024-04-23T00:36:51.780Z,-1.10
2024-04-23T00:39:25.835Z,-1.10
2024-04-23T00:42:00.624Z,-1.10
2024-04-23T00:44:34.360Z,-1.10
2024-04-23T00:47:09.465Z,-1.16
2024-04-23T00:49:43.715Z,-1.20
2024-04-23T00:52:19.091Z,-1.20
2024-04-23T00:54:54.305Z,-1.20
2024-04-23T00:57:27.897Z,-1.20
2024-04-23T01:00:01.812Z,-1.20
2024-04-23T01:02:35.894Z,-1.20
2024-04-23T01:05:10.500Z,-1.10
2024-04-23T01:07:43.941Z,-1.10
2024-04-23T01:10:18.324Z,-1.10
2024-04-23T01:12:52.048Z,-1.10
2024-04-23T01:15:27.900Z,-1.10
2024-04-23T01:18:06.813Z,-1.10
2024-04-23T01:20:42.472Z,-1.10
2024-04-23T01:23:24.089Z,-1.10
2024-04-23T01:26:07.318Z,-1.12
2024-04-23T01:28:44.304Z,-1.20
2024-04-23T01:31:21.206Z,-1.20
2024-04-23T01:33:57.965Z,-1.20
2024-04-23T01:36:32.868Z,-1.20
2024-04-23T01:39:07.613Z,-1.26
2024-04-23T01:41:41.239Z,-1.30
2024-04-23T01:44:15.021Z,-1.32
2024-04-23T01:46:49.690Z,-1.40
2024-04-23T01:49:23.738Z,-1.40
2024-04-23T01:51:57.864Z,-1.50
2024-04-23T01:54:31.564Z,-1.50
2024-04-23T01:57:09.644Z,-1.50
2024-04-23T01:59:54.097Z,-1.50
2024-04-23T02:02:29.247Z,-1.50
2024-04-23T02:05:04.316Z,-1.60
2024-04-23T02:07:38.658Z,-1.62
2024-04-23T02:10:13.649Z,-1.60
2024-04-23T02:12:47.703Z,-1.66
2024-04-23T02:15:22.239Z,-1.70
2024-04-23T02:17:57.573Z,-1.70
2024-04-23T02:20:31.378Z,-1.72
2024-04-23T02:23:05.035Z,-1.74
2024-04-23T02:25:38.787Z,-1.80
2024-04-23T02:28:12.485Z,-1.80
2024-04-23T02:30:46.248Z,-1.80
2024-04-23T02:33:20.044Z,-1.82
2024-04-23T02:35:53.996Z,-1.90
2024-04-23T02:38:27.546Z,-1.90
2024-04-23T02:41:01.322Z,-1.96
2024-04-23T02:43:35.068Z,-1.90
2024-04-23T02:46:09.317Z,-1.90
2024-04-23T02:48:42.919Z,-1.90
2024-04-23T02:51:16.345Z,-1.90
2024-04-23T02:53:50.030Z,-1.90
2024-04-23T02:56:24.155Z,-2.00
2024-04-23T02:58:58.842Z,-2.00
2024-04-23T03:01:32.467Z,-2.00
2024-04-23T03:04:06.003Z,-2.00
2024-04-23T03:06:39.815Z,-2.00
2024-04-23T03:09:13.473Z,-1.90
2024-04-23T03:11:57.029Z,-1.90
2024-04-23T03:14:30.655Z,-1.90
2024-04-23T03:17:05.033Z,-1.94
2024-04-23T03:19:38.867Z,-1.90
2024-04-23T03:22:12.472Z,-1.90
2024-04-23T03:24:46.239Z,-1.90
2024-04-23T03:27:19.863Z,-1.90
2024-04-23T03:29:53.473Z,-1.90
2024-04-23T03:32:26.990Z,-2.00
2024-04-23T03:35:00.781Z,-2.00
2024-04-23T03:37:34.740Z,-2.00
2024-04-23T03:40:11.563Z,-2.00
2024-04-23T03:42:45.246Z,-2.08
2024-04-23T03:45:18.578Z,-2.10
2024-04-23T03:47:52.091Z,-2.08
2024-04-23T03:50:27.924Z,-2.06
2024-04-23T03:53:01.786Z,-2.04
2024-04-23T03:55:35.658Z,-2.00
2024-04-23T03:58:09.327Z,-2.00
2024-04-23T04:00:42.758Z,-2.00
2024-04-23T04:03:33.797Z,-2.00
2024-04-23T04:06:08.404Z,-2.00
2024-04-23T04:08:42.588Z,-2.00
2024-04-23T04:11:16.217Z,-2.00
2024-04-23T04:13:50.113Z,-2.00
2024-04-23T04:16:24.623Z,-2.00
2024-04-23T04:18:58.222Z,-1.96
2024-04-23T04:21:31.923Z,-1.90
2024-04-23T04:24:06.187Z,-1.92
2024-04-23T04:26:39.764Z,-1.90
2024-04-23T04:29:13.319Z,-1.90
2024-04-23T04:31:46.841Z,-1.80
2024-04-23T04:34:21.966Z,-1.74
2024-04-23T04:36:55.383Z,-1.68
2024-04-23T04:39:29.156Z,-1.54
2024-04-23T04:42:05.974Z,-1.50
2024-04-23T04:44:41.166Z,-1.50
2024-04-23T04:47:14.873Z,-1.40
2024-04-23T04:49:48.645Z,-1.38
2024-04-23T04:52:22.328Z,-1.30
2024-04-23T04:54:55.794Z,-1.20
2024-04-23T04:57:32.181Z,-1.18
2024-04-23T05:00:06.916Z,-1.10
2024-04-23T05:02:41.152Z,-1.00
2024-04-23T05:05:14.791Z,-0.90
2024-04-23T05:07:48.331Z,-0.80
2024-04-23T05:10:22.296Z,-0.74
2024-04-23T05:12:56.076Z,-0.70
2024-04-23T05:15:30.659Z,-0.60
2024-04-23T05:18:04.408Z,-0.50
2024-04-23T05:20:38.383Z,-0.40
2024-04-23T05:23:12.082Z,-0.30
2024-04-23T05:25:47.128Z,-0.22
2024-04-23T05:28:20.867Z,-0.16
2024-04-23T05:31:12.159Z,-0.10
2024-04-23T05:33:46.012Z,0.00
2024-04-23T05:36:23.923Z,0.20
2024-04-23T05:38:57.942Z,0.30
2024-04-23T05:41:32.031Z,0.40
2024-04-23T05:44:05.944Z,0.54
2024-04-23T05:46:39.506Z,0.70
2024-04-23T05:50:05.574Z,0.80
2024-04-23T05:53:50.343Z,0.94
2024-04-23T05:56:43.451Z,1.10
2024-04-23T05:59:17.167Z,1.20
2024-04-23T06:01:50.814Z,1.30
2024-04-23T06:04:24.577Z,1.40
2024-04-23T06:06:58.300Z,1.60
2024-04-23T06:09:33.650Z,1.78
2024-04-23T06:12:08.372Z,1.90
2024-04-23T06:14:44.423Z,2.06
2024-04-23T06:17:32.037Z,2.20
2024-04-23T06:20:13.821Z,2.36
2024-04-23T06:22:50.360Z,2.50
2024-04-23T06:25:26.032Z,2.60
2024-04-23T06:27:59.741Z,2.78
2024-04-23T06:30:33.572Z,2.90
2024-04-23T06:33:07.481Z,3.10
2024-04-23T06:35:41.186Z,3.30
2024-04-23T06:38:14.861Z,3.42
2024-04-23T06:40:53.872Z,3.60
2024-04-23T06:43:28.830Z,3.72
2024-04-23T06:46:02.488Z,3.90
2024-04-23T06:48:36.083Z,3.98
2024-04-23T06:51:11.632Z,4.04
2024-04-23T06:53:45.263Z,4.20
2024-04-23T06:56:18.897Z,4.30
2024-04-23T06:58:52.687Z,4.46
2024-04-23T07:01:26.537Z,4.60
2024-04-23T07:04:00.263Z,4.80
2024-04-23T07:06:37.810Z,5.00
2024-04-23T07:09:12.805Z,5.20
2024-04-23T07:11:47.486Z,5.40
2024-04-23T07:14:21.456Z,5.60
2024-04-23T07:16:55.631Z,5.80
2024-04-23T07:19:29.923Z,6.00
2024-04-23T07:22:03.699Z,6.22
2024-04-23T07:24:37.600Z,6.50
2024-04-23T07:27:11.496Z,6.78
2024-04-23T07:29:45.107Z,6.96
2024-04-23T07:32:19.759Z,7.12
2024-04-23T07:34:53.662Z,7.30
2024-04-23T07:37:27.909Z,7.50
2024-04-23T07:40:01.498Z,7.62
2024-04-23T07:42:36.213Z,7.80
2024-04-23T07:45:12.883Z,7.90
2024-04-23T07:47:46.639Z,8.10
2024-04-23T07:50:21.983Z,8.20
2024-04-23T07:52:55.833Z,8.30
2024-04-23T07:55:29.891Z,8.50
2024-04-23T07:58:03.961Z,8.50
2024-04-23T08:00:37.782Z,8.60
2024-04-23T08:03:13.441Z,8.70
2024-04-23T08:05:47.235Z,8.76
2024-04-23T08:08:22.032Z,8.90
2024-04-23T08:10:56.202Z,8.90
2024-04-23T08:13:31.442Z,8.90
2024-04-23T08:16:06.001Z,8.90
2024-04-23T08:18:39.832Z,9.10
2024-04-23T08:21:13.459Z,9.50
2024-04-23T08:23:50.130Z,9.70
2024-04-23T08:26:24.098Z,9.90
2024-04-23T08:29:01.930Z,9.90
2024-04-23T08:31:40.275Z,9.80
2024-04-23T08:34:14.295Z,9.70
2024-04-23T08:36:48.058Z,9.64
2024-04-23T08:39:21.910Z,9.50
2024-04-23T08:41:58.532Z,9.40
2024-04-23T08:44:41.221Z,9.40
2024-04-23T08:47:16.155Z,9.60
2024-04-23T08:49:51.137Z,10.00
2024-04-23T08:52:26.037Z,10.32
2024-04-23T08:54:59.904Z,10.92
2024-04-23T08:57:35.539Z,11.32
2024-04-23T09:00:13.221Z,12.04
2024-04-23T09:02:49.146Z,12.82
2024-04-23T09:05:24.449Z,13.32
2024-04-23T09:07:59.659Z,13.06
2024-04-23T09:10:34.775Z,12.44
2024-04-23T09:13:09.770Z,12.30
2024-04-23T09:15:43.502Z,12.00
2024-04-23T09:18:19.060Z,12.26
2024-04-23T09:20:53.431Z,12.60
2024-04-23T09:23:32.308Z,12.80
2024-04-23T09:26:07.893Z,13.20
2024-04-23T09:28:44.663Z,13.50
2024-04-23T09:31:23.949Z,13.54
2024-04-23T09:33:59.084Z,13.88
2024-04-23T09:36:36.532Z,14.10
2024-04-23T09:39:19.753Z,14.60
2024-04-23T09:42:03.426Z,14.80
2024-04-23T09:44:40.913Z,15.30
2024-04-23T09:47:16.809Z,15.78
2024-04-23T09:49:58.305Z,15.90
2024-04-23T09:52:36.945Z,15.78
2024-04-23T09:55:15.492Z,15.22
2024-04-23T09:57:53.762Z,15.34
2024-04-23T10:00:29.649Z,15.68
2024-04-23T10:03:16.328Z,15.50
2024-04-23T10:05:52.984Z,15.34
2024-04-23T10:08:39.826Z,15.80
2024-04-23T10:11:22.288Z,16.22
2024-04-23T10:14:05.431Z,16.70
2024-04-23T10:16:51.050Z,17.30
2024-04-23T10:19:28.283Z,17.20
2024-04-23T10:22:04.178Z,17.70
2024-04-23T10:24:38.082Z,18.12
2024-04-23T10:27:13.923Z,18.44
2024-04-23T10:29:50.880Z,18.40
2024-04-23T10:32:29.918Z,18.94
2024-04-23T10:35:06.796Z,19.20
2024-04-23T10:37:44.904Z,19.68
2024-04-23T10:40:19.650Z,20.34
2024-04-23T10:42:53.322Z,20.70
2024-04-23T10:45:27.510Z,20.90
2024-04-23T10:48:10.357Z,20.80
2024-04-23T10:50:53.957Z,21.20
2024-04-23T10:53:27.952Z,21.00
2024-04-23T10:56:01.895Z,21.00
2024-04-23T10:58:42.153Z,21.12
2024-04-23T11:01:29.455Z,21.78
2024-04-23T11:04:10.888Z,21.70
2024-04-23T11:06:49.290Z,21.70
2024-04-23T11:09:29.332Z,21.90
2024-04-23T11:12:02.977Z,22.30
2024-04-23T11:14:40.612Z,21.74
2024-04-23T11:17:14.607Z,21.38
2024-04-23T11:19:51.965Z,20.78
2024-04-23T11:22:50.305Z,19.68
2024-04-23T11:25:35.277Z,18.34
2024-04-23T11:28:10.298Z,18.72
2024-04-23T11:30:52.320Z,20.10
2024-04-23T11:33:26.559Z,21.14
2024-04-23T11:36:00.976Z,21.50
2024-04-23T11:38:46.782Z,21.42
2024-04-23T11:41:20.353Z,20.10
2024-04-23T11:43:54.252Z,20.02
2024-04-23T11:46:28.151Z,19.40
2024-04-23T11:49:02.471Z,19.80
2024-04-23T11:51:36.942Z,19.60
2024-04-23T11:54:11.380Z,20.28
2024-04-23T11:56:46.106Z,21.12
2024-04-23T11:59:23.465Z,21.70
2024-04-23T12:01:57.213Z,21.90
2024-04-23T12:04:31.596Z,22.40
2024-04-23T12:07:06.514Z,21.66
2024-04-23T12:09:40.301Z,21.10
2024-04-23T12:12:18.320Z,21.74
2024-04-23T12:14:54.371Z,22.30
2024-04-23T12:17:28.300Z,21.62
2024-04-23T12:20:02.521Z,20.26
2024-04-23T12:22:37.670Z,19.80
2024-04-23T12:25:12.908Z,19.66
2024-04-23T12:27:49.252Z,19.70
2024-04-23T12:30:29.397Z,20.34
2024-04-23T12:33:15.297Z,21.62
2024-04-23T12:35:49.894Z,22.00
2024-04-23T12:38:23.595Z,21.26
2024-04-23T12:40:58.034Z,21.10
2024-04-23T12:43:33.257Z,21.00
2024-04-23T12:46:07.731Z,21.86
2024-04-23T12:48:42.274Z,22.76
2024-04-23T12:51:16.427Z,23.86
2024-04-23T12:53:50.655Z,23.92
2024-04-23T12:56:24.739Z,23.78
2024-04-23T12:58:58.744Z,23.48
2024-04-23T13:01:41.753Z,24.06
2024-04-23T13:04:19.281Z,25.00
2024-04-23T13:06:53.138Z,25.40
2024-04-23T13:09:26.920Z,25.50
2024-04-23T13:12:03.599Z,25.20
2024-04-23T13:14:37.440Z,23.88
2024-04-23T13:17:13.827Z,23.10
2024-04-23T13:19:50.512Z,22.40
2024-04-23T13:22:30.503Z,21.56
2024-04-23T13:25:04.616Z,20.92
2024-04-23T13:27:38.477Z,20.20
2024-04-23T13:30:15.315Z,19.76
2024-04-23T13:32:50.104Z,19.40
2024-04-23T13:35:25.502Z,19.20
2024-04-23T13:37:59.502Z,19.10
2024-04-23T13:40:33.741Z,18.90
2024-04-23T13:43:08.573Z,18.50
2024-04-23T13:45:42.326Z,18.66
2024-04-23T13:48:16.044Z,19.88
2024-04-23T13:50:49.886Z,21.94
2024-04-23T13:53:23.598Z,23.06
2024-04-23T13:55:57.427Z,23.60
2024-04-23T13:58:31.309Z,23.38
2024-04-23T14:01:11.045Z,23.00
2024-04-23T14:03:45.024Z,22.46
2024-04-23T14:06:19.499Z,21.76
2024-04-23T14:08:53.360Z,22.02
2024-04-23T14:11:28.546Z,22.40
2024-04-23T14:14:02.474Z,22.30
2024-04-23T14:16:36.321Z,22.52
2024-04-23T14:19:12.347Z,22.80
2024-04-23T14:21:49.313Z,23.00
2024-04-23T14:24:23.450Z,23.02
2024-04-23T14:26:57.036Z,22.90
2024-04-23T14:29:30.992Z,22.80
2024-04-23T14:32:06.150Z,22.50
2024-04-23T14:34:39.830Z,22.50
2024-04-23T14:37:13.498Z,22.34
2024-04-23T14:39:47.112Z,22.78
2024-04-23T14:42:21.970Z,23.00
2024-04-23T14:44:58.138Z,23.10
2024-04-23T14:47:34.438Z,23.68
2024-04-23T14:50:12.450Z,24.16
2024-04-23T14:52:46.317Z,24.10
2024-04-23T14:55:20.060Z,23.46
2024-04-23T14:57:56.195Z,23.04
2024-04-23T15:00:31.129Z,23.18
2024-04-23T15:03:05.494Z,23.30
2024-04-23T15:05:42.590Z,23.00
2024-04-23T15:08:16.504Z,23.38
2024-04-23T15:10:53.695Z,23.70
2024-04-23T15:13:27.438Z,23.02
2024-04-23T15:16:06.216Z,21.74
2024-04-23T15:18:42.136Z,20.86
2024-04-23T15:21:16.885Z,20.50
2024-04-23T15:23:50.941Z,20.38
2024-04-23T15:26:25.257Z,20.20
2024-04-23T15:28:59.206Z,19.70
2024-04-23T15:31:33.199Z,19.70
2024-04-23T15:34:08.462Z,19.60
2024-04-23T15:36:42.513Z,19.70
2024-04-23T15:39:16.308Z,19.52
2024-04-23T15:41:49.972Z,19.40
2024-04-23T15:44:24.608Z,19.50
2024-04-23T15:46:58.240Z,19.50
2024-04-23T15:49:31.990Z,19.68
2024-04-23T15:52:06.689Z,20.00
2024-04-23T15:54:40.749Z,19.52
2024-04-23T15:57:15.763Z,18.86
2024-04-23T15:59:50.978Z,18.38
2024-04-23T16:02:28.543Z,17.86
2024-04-23T16:05:03.049Z,17.48
2024-04-23T16:07:36.985Z,16.90
2024-04-23T16:10:11.728Z,16.40
2024-04-23T16:12:45.324Z,16.00
2024-04-23T16:15:19.247Z,15.60
2024-04-23T16:17:53.125Z,15.30
2024-04-23T16:20:27.125Z,15.20
2024-04-23T16:23:01.041Z,15.08
2024-04-23T16:25:35.806Z,14.90
2024-04-23T16:28:10.253Z,14.60
2024-04-23T16:30:44.015Z,14.40
2024-04-23T16:33:18.680Z,14.20
2024-04-23T16:35:52.737Z,14.10
2024-04-23T16:38:26.570Z,14.06
2024-04-23T16:41:04.242Z,14.00
2024-04-23T16:43:39.018Z,13.88
2024-04-23T16:46:14.406Z,13.70
2024-04-23T16:48:48.681Z,13.60
2024-04-23T16:51:22.588Z,13.50
2024-04-23T16:53:56.253Z,13.50
2024-04-23T16:56:30.169Z,13.60
2024-04-23T16:59:04.388Z,13.60
2024-04-23T17:01:38.607Z,13.70
2024-04-23T17:04:12.821Z,13.80
2024-04-23T17:06:46.687Z,13.80
2024-04-23T17:09:20.514Z,13.70
2024-04-23T17:11:54.815Z,13.60
2024-04-23T17:14:28.705Z,13.40
2024-04-23T17:17:04.054Z,13.20
2024-04-23T17:19:38.091Z,13.00
2024-04-23T17:22:12.230Z,12.72
2024-04-23T17:24:46.524Z,12.50
2024-04-23T17:27:20.666Z,12.40
2024-04-23T17:29:55.961Z,12.20
2024-04-23T17:32:30.342Z,12.10
2024-04-23T17:35:05.288Z,12.00
2024-04-23T17:37:42.055Z,11.80
2024-04-23T17:40:17.293Z,11.70
2024-04-23T17:42:54.151Z,11.50
2024-04-23T17:45:28.256Z,11.34
2024-04-23T17:48:02.483Z,11.18
2024-04-23T17:50:38.290Z,10.98
2024-04-23T17:53:12.477Z,10.80
2024-04-23T17:55:46.779Z,10.68
2024-04-23T17:58:21.295Z,10.50
2024-04-23T18:00:57.617Z,10.40
2024-04-23T18:03:34.071Z,10.20
2024-04-23T18:06:13.075Z,10.00
2024-04-23T18:08:47.211Z,9.80
2024-04-23T18:11:24.864Z,9.70
2024-04-23T18:13:59.315Z,9.50
2024-04-23T18:16:34.986Z,9.30
2024-04-23T18:19:08.995Z,9.10
2024-04-23T18:21:42.774Z,9.00
2024-04-23T18:24:18.616Z,8.90
2024-04-23T18:26:55.726Z,8.70
2024-04-23T18:29:29.708Z,8.60
2024-04-23T18:32:06.107Z,8.50
2024-04-23T18:34:40.252Z,8.40
2024-04-23T18:37:14.125Z,8.30
2024-04-23T18:39:49.274Z,8.20
2024-04-23T18:42:23.030Z,8.18
2024-04-23T18:44:57.240Z,8.10
2024-04-23T18:47:33.316Z,8.00
2024-04-23T18:50:13.390Z,7.98
2024-04-23T18:52:47.532Z,7.90
2024-04-23T18:55:21.426Z,7.90
2024-04-23T18:57:55.232Z,7.86
2024-04-23T19:00:29.473Z,7.80
2024-04-23T19:03:03.469Z,7.80
2024-04-23T19:05:37.652Z,7.86
2024-04-23T19:08:12.319Z,7.90
2024-04-23T19:10:46.530Z,7.90
2024-04-23T19:13:20.924Z,7.90
2024-04-23T19:15:55.038Z,8.00
2024-04-23T19:18:31.926Z,8.00
2024-04-23T19:21:06.789Z,8.00
2024-04-23T19:23:40.743Z,8.00
2024-04-23T19:26:14.641Z,8.00
2024-04-23T19:28:49.146Z,8.00
2024-04-23T19:31:22.991Z,8.00
2024-04-23T19:33:57.147Z,8.00
2024-04-23T19:36:31.261Z,8.00
2024-04-23T19:39:05.604Z,8.00
2024-04-23T19:41:39.641Z,8.00
2024-04-23T19:44:16.975Z,8.00
2024-04-23T19:46:51.463Z,7.90
2024-04-23T19:49:26.621Z,7.90
2024-04-23T19:52:00.961Z,7.90
2024-04-23T19:54:35.137Z,7.90
2024-04-23T19:57:29.185Z,7.90
2024-04-23T20:00:03.419Z,7.90
2024-04-23T20:02:39.231Z,7.90
2024-04-23T20:05:13.633Z,7.90
2024-04-23T20:07:47.693Z,7.90
2024-04-23T20:10:21.804Z,7.90
2024-04-23T20:12:55.963Z,7.90
2024-04-23T20:15:29.898Z,7.90
2024-04-23T20:18:04.481Z,7.90
2024-04-23T20:20:40.295Z,7.82
2024-04-23T20:23:14.538Z,7.80
2024-04-23T20:25:48.929Z,7.80
2024-04-23T20:28:24.458Z,7.80
2024-04-23T20:31:00.809Z,7.80
2024-04-23T20:33:35.942Z,7.80
2024-04-23T20:36:11.381Z,7.80
2024-04-23T20:38:45.511Z,7.80
2024-04-23T20:41:19.391Z,7.76
2024-04-23T20:43:53.269Z,7.70
2024-04-23T20:46:27.194Z,7.70
2024-04-23T20:49:00.992Z,7.70
2024-04-23T20:51:34.790Z,7.70
2024-04-23T20:54:08.792Z,7.70
2024-04-23T20:56:42.684Z,7.70
2024-04-23T20:59:16.600Z,7.60
2024-04-23T21:01:50.444Z,7.62
2024-04-23T21:04:24.517Z,7.60
2024-04-23T21:06:58.422Z,7.60
2024-04-23T21:09:32.433Z,7.60
2024-04-23T21:12:07.381Z,7.60
2024-04-23T21:14:41.198Z,7.58
2024-04-23T21:17:15.044Z,7.54
2024-04-23T21:19:48.924Z,7.50
2024-04-23T21:22:22.706Z,7.50
2024-04-23T21:24:56.468Z,7.50
2024-04-23T21:27:30.256Z,7.50
2024-04-23T21:30:05.214Z,7.50
2024-04-23T21:32:45.385Z,7.50
2024-04-23T21:35:19.842Z,7.50
2024-04-23T21:38:01.544Z,7.46
2024-04-23T21:40:36.507Z,7.40
2024-04-23T21:43:10.355Z,7.40
2024-04-23T21:45:44.314Z,7.40
2024-04-23T21:48:18.269Z,7.40
2024-04-23T21:50:52.144Z,7.40
2024-04-23T21:53:26.215Z,7.38
2024-04-23T21:56:00.140Z,7.36
2024-04-23T21:58:35.050Z,7.30
2024-04-23T22:01:16.391Z,7.30
2024-04-23T22:03:51.631Z,7.30
2024-04-23T22:06:25.915Z,7.30
2024-04-23T22:08:59.847Z,7.28
2024-04-23T22:11:33.780Z,7.20
2024-04-23T22:14:08.464Z,7.20
2024-04-23T22:16:44.353Z,7.20
2024-04-23T22:19:19.379Z,7.20
2024-04-23T22:21:52.975Z,7.20
2024-04-23T22:24:26.613Z,7.20
2024-04-23T22:27:00.382Z,7.20
2024-04-23T22:29:34.276Z,7.20
2024-04-23T22:32:08.705Z,7.14
2024-04-23T22:34:43.826Z,7.10
2024-04-23T22:37:17.545Z,7.10
2024-04-23T22:39:51.436Z,7.04
2024-04-23T22:42:25.127Z,7.00
2024-04-23T22:44:58.690Z,6.90
2024-04-23T22:47:32.548Z,6.90
2024-04-23T22:50:07.213Z,6.90
2024-04-23T22:52:40.861Z,6.90
2024-04-23T22:55:14.465Z,6.90
2024-04-23T22:57:48.120Z,6.90
2024-04-23T23:00:21.861Z,6.80
2024-04-23T23:02:55.583Z,6.80
2024-04-23T23:05:29.360Z,6.80
2024-04-23T23:08:03.670Z,6.80
2024-04-23T23:10:37.497Z,6.80
2024-04-23T23:13:11.238Z,6.80
2024-04-23T23:15:44.820Z,6.82
2024-04-23T23:18:18.537Z,6.80
2024-04-23T23:20:52.064Z,6.80
2024-04-23T23:23:25.931Z,6.80
2024-04-23T23:25:59.628Z,6.80
2024-04-23T23:28:33.163Z,6.80
2024-04-23T23:31:07.021Z,6.80
2024-04-23T23:33:40.723Z,6.80
2024-04-23T23:36:14.709Z,6.76
2024-04-23T23:38:48.482Z,6.72
2024-04-23T23:41:22.737Z,6.70
2024-04-23T23:43:56.516Z,6.70
2024-04-23T23:46:30.131Z,6.70
2024-04-23T23:49:03.730Z,6.70
2024-04-23T23:51:37.379Z,6.70
2024-04-23T23:54:11.029Z,6.66
2024-04-23T23:56:44.708Z,6.60
2024-04-23T23:59:18.766Z,6.60
